sensor_id;sensor_type;location;lat;lon;timestamp;P1;durP1;ratioP1;P2;durP2;ratioP2
5612;SDS011;63463;53.586;9.928;2023-06-26T00:00:10;14.70;;;12.57;;
5612;SDS011;63463;53.586;9.928;2023-06-26T00:02:36;15.07;;;12.80;;
5612;SDS011;63463;53.586;9.928;2023-06-26T00:05:02;14.13;;;12.73;;
5612;SDS011;63463;53.586;9.928;2023-06-26T00:07:29;18.20;;;13.97;;
5612;SDS011;63463;53.586;9.928;2023-06-26T00:09:56;15.57;;;11.93;;
5612;SDS011;63463;53.586;9.928;2023-06-26T00:12:22;15.23;;;12.50;;
5612;SDS011;63463;53.586;9.928;2023-06-26T00:14:48;14.60;;;12.60;;
5612;SDS011;63463;53.586;9.928;2023-06-26T00:17:14;22.47;;;12.30;;
5612;SDS011;63463;53.586;9.928;2023-06-26T00:19:39;15.83;;;12.57;;
5612;SDS011;63463;53.586;9.928;2023-06-26T00:22:05;19.50;;;13.57;;
5612;SDS011;63463;53.586;9.928;2023-06-26T00:24:31;14.50;;;12.90;;
5612;SDS011;63463;53.586;9.928;2023-06-26T00:26:57;15.40;;;12.83;;
5612;SDS011;63463;53.586;9.928;2023-06-26T00:29:23;15.40;;;13.10;;
5612;SDS011;63463;53.586;9.928;2023-06-26T00:31:50;16.23;;;12.27;;
5612;SDS011;63463;53.586;9.928;2023-06-26T00:34:15;16.07;;;14.03;;
5612;SDS011;63463;53.586;9.928;2023-06-26T00:36:41;17.17;;;12.80;;
5612;SDS011;63463;53.586;9.928;2023-06-26T00:39:08;20.90;;;13.97;;
5612;SDS011;63463;53.586;9.928;2023-06-26T00:41:34;16.20;;;13.60;;
5612;SDS011;63463;53.586;9.928;2023-06-26T00:44:01;15.67;;;13.30;;
5612;SDS011;63463;53.586;9.928;2023-06-26T00:46:27;16.47;;;13.73;;
5612;SDS011;63463;53.586;9.928;2023-06-26T00:48:53;17.10;;;13.73;;
5612;SDS011;63463;53.586;9.928;2023-06-26T00:51:19;18.10;;;13.40;;
5612;SDS011;63463;53.586;9.928;2023-06-26T00:53:45;15.10;;;13.27;;
5612;SDS011;63463;53.586;9.928;2023-06-26T00:56:12;16.43;;;12.97;;
5612;SDS011;63463;53.586;9.928;2023-06-26T00:58:38;17.03;;;13.60;;
5612;SDS011;63463;53.586;9.928;2023-06-26T01:01:04;19.13;;;13.57;;
5612;SDS011;63463;53.586;9.928;2023-06-26T01:03:33;16.27;;;13.33;;
5612;SDS011;63463;53.586;9.928;2023-06-26T01:05:59;19.90;;;13.17;;
5612;SDS011;63463;53.586;9.928;2023-06-26T01:08:25;17.80;;;14.17;;
5612;SDS011;63463;53.586;9.928;2023-06-26T01:10:52;15.67;;;13.07;;
5612;SDS011;63463;53.586;9.928;2023-06-26T01:13:18;16.43;;;13.70;;
5612;SDS011;63463;53.586;9.928;2023-06-26T01:15:45;15.87;;;13.20;;
5612;SDS011;63463;53.586;9.928;2023-06-26T01:18:12;14.47;;;12.97;;
5612;SDS011;63463;53.586;9.928;2023-06-26T01:20:43;17.33;;;14.13;;
5612;SDS011;63463;53.586;9.928;2023-06-26T01:23:22;21.90;;;12.93;;
5612;SDS011;63463;53.586;9.928;2023-06-26T01:28:54;15.10;;;11.70;;
5612;SDS011;63463;53.586;9.928;2023-06-26T01:31:21;16.43;;;12.93;;
5612;SDS011;63463;53.586;9.928;2023-06-26T01:33:47;16.33;;;12.77;;
5612;SDS011;63463;53.586;9.928;2023-06-26T01:36:15;13.07;;;11.67;;
5612;SDS011;63463;53.586;9.928;2023-06-26T01:38:41;14.43;;;12.67;;
5612;SDS011;63463;53.586;9.928;2023-06-26T01:41:07;17.03;;;13.00;;
5612;SDS011;63463;53.586;9.928;2023-06-26T01:46:04;20.27;;;13.67;;
5612;SDS011;63463;53.586;9.928;2023-06-26T01:48:35;17.27;;;14.07;;
5612;SDS011;63463;53.586;9.928;2023-06-26T01:51:02;16.50;;;13.80;;
5612;SDS011;63463;53.586;9.928;2023-06-26T01:53:32;16.90;;;13.93;;
5612;SDS011;63463;53.586;9.928;2023-06-26T01:56:16;19.73;;;14.40;;
5612;SDS011;63463;53.586;9.928;2023-06-26T01:58:45;15.33;;;13.40;;
5612;SDS011;63463;53.586;9.928;2023-06-26T02:01:24;18.07;;;15.10;;
5612;SDS011;63463;53.586;9.928;2023-06-26T02:03:50;19.60;;;14.43;;
5612;SDS011;63463;53.586;9.928;2023-06-26T02:06:16;19.73;;;14.47;;
5612;SDS011;63463;53.586;9.928;2023-06-26T02:08:42;17.03;;;13.63;;
5612;SDS011;63463;53.586;9.928;2023-06-26T02:11:07;17.40;;;14.30;;
5612;SDS011;63463;53.586;9.928;2023-06-26T02:13:33;15.93;;;14.03;;
5612;SDS011;63463;53.586;9.928;2023-06-26T02:15:59;16.83;;;13.97;;
5612;SDS011;63463;53.586;9.928;2023-06-26T02:18:25;19.40;;;13.90;;
5612;SDS011;63463;53.586;9.928;2023-06-26T02:20:51;17.43;;;14.77;;
5612;SDS011;63463;53.586;9.928;2023-06-26T02:23:17;16.53;;;13.97;;
5612;SDS011;63463;53.586;9.928;2023-06-26T02:25:43;17.47;;;14.13;;
5612;SDS011;63463;53.586;9.928;2023-06-26T02:28:09;21.63;;;14.87;;
5612;SDS011;63463;53.586;9.928;2023-06-26T02:30:35;17.70;;;13.10;;
5612;SDS011;63463;53.586;9.928;2023-06-26T02:33:01;19.70;;;13.53;;
5612;SDS011;63463;53.586;9.928;2023-06-26T02:35:27;17.60;;;14.50;;
5612;SDS011;63463;53.586;9.928;2023-06-26T02:37:56;18.30;;;15.57;;
5612;SDS011;63463;53.586;9.928;2023-06-26T02:40:22;19.53;;;14.67;;
5612;SDS011;63463;53.586;9.928;2023-06-26T02:42:48;18.37;;;14.67;;
5612;SDS011;63463;53.586;9.928;2023-06-26T02:45:14;17.77;;;15.03;;
5612;SDS011;63463;53.586;9.928;2023-06-26T02:47:40;16.97;;;13.83;;
5612;SDS011;63463;53.586;9.928;2023-06-26T02:50:06;17.33;;;14.13;;
5612;SDS011;63463;53.586;9.928;2023-06-26T02:52:32;16.33;;;13.87;;
5612;SDS011;63463;53.586;9.928;2023-06-26T02:54:58;16.10;;;14.33;;
5612;SDS011;63463;53.586;9.928;2023-06-26T02:57:24;22.53;;;15.33;;
5612;SDS011;63463;53.586;9.928;2023-06-26T02:59:50;15.80;;;13.93;;
5612;SDS011;63463;53.586;9.928;2023-06-26T03:02:16;20.97;;;14.23;;
5612;SDS011;63463;53.586;9.928;2023-06-26T03:04:42;18.37;;;14.93;;
5612;SDS011;63463;53.586;9.928;2023-06-26T03:07:08;17.23;;;14.30;;
5612;SDS011;63463;53.586;9.928;2023-06-26T03:09:34;16.93;;;13.00;;
5612;SDS011;63463;53.586;9.928;2023-06-26T03:12:00;16.87;;;14.07;;
5612;SDS011;63463;53.586;9.928;2023-06-26T03:14:26;18.43;;;13.80;;
5612;SDS011;63463;53.586;9.928;2023-06-26T03:16:52;23.33;;;14.63;;
5612;SDS011;63463;53.586;9.928;2023-06-26T03:19:20;22.53;;;14.30;;
5612;SDS011;63463;53.586;9.928;2023-06-26T03:21:46;19.17;;;14.10;;
5612;SDS011;63463;53.586;9.928;2023-06-26T03:24:12;20.60;;;14.23;;
5612;SDS011;63463;53.586;9.928;2023-06-26T03:26:38;18.33;;;14.13;;
5612;SDS011;63463;53.586;9.928;2023-06-26T03:29:04;17.83;;;14.10;;
5612;SDS011;63463;53.586;9.928;2023-06-26T03:31:30;15.57;;;12.87;;
5612;SDS011;63463;53.586;9.928;2023-06-26T03:34:00;16.27;;;13.07;;
5612;SDS011;63463;53.586;9.928;2023-06-26T03:36:25;15.83;;;12.90;;
5612;SDS011;63463;53.586;9.928;2023-06-26T03:38:51;18.70;;;14.17;;
5612;SDS011;63463;53.586;9.928;2023-06-26T03:41:21;20.60;;;13.80;;
5612;SDS011;63463;53.586;9.928;2023-06-26T03:43:47;19.30;;;14.17;;
5612;SDS011;63463;53.586;9.928;2023-06-26T03:46:13;15.90;;;12.40;;
5612;SDS011;63463;53.586;9.928;2023-06-26T03:48:39;17.93;;;14.30;;
5612;SDS011;63463;53.586;9.928;2023-06-26T03:51:05;21.77;;;13.47;;
5612;SDS011;63463;53.586;9.928;2023-06-26T03:53:35;17.87;;;13.13;;
5612;SDS011;63463;53.586;9.928;2023-06-26T03:56:03;15.27;;;11.40;;
5612;SDS011;63463;53.586;9.928;2023-06-26T03:58:29;15.83;;;12.90;;
5612;SDS011;63463;53.586;9.928;2023-06-26T04:00:55;17.13;;;12.10;;
5612;SDS011;63463;53.586;9.928;2023-06-26T04:03:22;15.47;;;12.70;;
5612;SDS011;63463;53.586;9.928;2023-06-26T04:05:48;17.10;;;12.60;;
5612;SDS011;63463;53.586;9.928;2023-06-26T04:08:14;13.50;;;11.70;;
5612;SDS011;63463;53.586;9.928;2023-06-26T04:10:40;15.80;;;11.93;;
5612;SDS011;63463;53.586;9.928;2023-06-26T04:13:06;16.37;;;12.00;;
5612;SDS011;63463;53.586;9.928;2023-06-26T04:15:32;17.30;;;11.73;;
5612;SDS011;63463;53.586;9.928;2023-06-26T04:17:58;12.30;;;10.60;;
5612;SDS011;63463;53.586;9.928;2023-06-26T04:20:24;15.70;;;11.20;;
5612;SDS011;63463;53.586;9.928;2023-06-26T04:22:50;16.13;;;10.53;;
5612;SDS011;63463;53.586;9.928;2023-06-26T04:25:16;15.23;;;11.20;;
5612;SDS011;63463;53.586;9.928;2023-06-26T04:27:42;13.47;;;9.90;;
5612;SDS011;63463;53.586;9.928;2023-06-26T04:30:08;15.33;;;10.93;;
5612;SDS011;63463;53.586;9.928;2023-06-26T04:32:34;12.23;;;10.93;;
5612;SDS011;63463;53.586;9.928;2023-06-26T04:35:00;12.53;;;11.23;;
5612;SDS011;63463;53.586;9.928;2023-06-26T04:37:27;12.93;;;10.47;;
5612;SDS011;63463;53.586;9.928;2023-06-26T04:39:53;13.53;;;11.00;;
5612;SDS011;63463;53.586;9.928;2023-06-26T04:42:19;14.87;;;11.23;;
5612;SDS011;63463;53.586;9.928;2023-06-26T04:44:46;12.03;;;10.83;;
5612;SDS011;63463;53.586;9.928;2023-06-26T04:47:18;14.37;;;11.13;;
5612;SDS011;63463;53.586;9.928;2023-06-26T04:49:44;21.60;;;11.47;;
5612;SDS011;63463;53.586;9.928;2023-06-26T04:52:11;14.80;;;11.40;;
5612;SDS011;63463;53.586;9.928;2023-06-26T04:54:38;18.87;;;11.50;;
5612;SDS011;63463;53.586;9.928;2023-06-26T04:57:04;14.53;;;10.87;;
5612;SDS011;63463;53.586;9.928;2023-06-26T04:59:30;16.10;;;11.37;;
5612;SDS011;63463;53.586;9.928;2023-06-26T05:01:56;12.40;;;10.20;;
5612;SDS011;63463;53.586;9.928;2023-06-26T05:04:22;13.43;;;10.70;;
5612;SDS011;63463;53.586;9.928;2023-06-26T05:06:48;12.70;;;10.57;;
5612;SDS011;63463;53.586;9.928;2023-06-26T05:09:14;16.03;;;10.90;;
5612;SDS011;63463;53.586;9.928;2023-06-26T05:11:40;13.43;;;11.30;;
5612;SDS011;63463;53.586;9.928;2023-06-26T05:14:06;12.00;;;10.10;;
5612;SDS011;63463;53.586;9.928;2023-06-26T05:16:34;14.47;;;9.80;;
5612;SDS011;63463;53.586;9.928;2023-06-26T05:19:00;15.10;;;10.77;;
5612;SDS011;63463;53.586;9.928;2023-06-26T05:21:44;11.80;;;10.07;;
5612;SDS011;63463;53.586;9.928;2023-06-26T05:24:10;11.43;;;10.20;;
5612;SDS011;63463;53.586;9.928;2023-06-26T05:26:39;14.10;;;9.37;;
5612;SDS011;63463;53.586;9.928;2023-06-26T05:29:05;14.70;;;10.37;;
5612;SDS011;63463;53.586;9.928;2023-06-26T05:31:32;12.93;;;9.87;;
5612;SDS011;63463;53.586;9.928;2023-06-26T05:34:00;14.47;;;10.50;;
5612;SDS011;63463;53.586;9.928;2023-06-26T05:36:26;13.30;;;10.60;;
5612;SDS011;63463;53.586;9.928;2023-06-26T05:38:53;17.13;;;10.20;;
5612;SDS011;63463;53.586;9.928;2023-06-26T05:41:21;12.60;;;10.63;;
5612;SDS011;63463;53.586;9.928;2023-06-26T05:43:47;11.30;;;9.63;;
5612;SDS011;63463;53.586;9.928;2023-06-26T05:46:13;12.60;;;9.33;;
5612;SDS011;63463;53.586;9.928;2023-06-26T05:48:39;11.93;;;10.60;;
5612;SDS011;63463;53.586;9.928;2023-06-26T05:51:05;15.20;;;9.63;;
5612;SDS011;63463;53.586;9.928;2023-06-26T05:53:32;9.87;;;8.70;;
5612;SDS011;63463;53.586;9.928;2023-06-26T05:55:59;13.20;;;9.67;;
5612;SDS011;63463;53.586;9.928;2023-06-26T05:58:26;15.10;;;10.43;;
5612;SDS011;63463;53.586;9.928;2023-06-26T06:00:52;12.20;;;9.30;;
5612;SDS011;63463;53.586;9.928;2023-06-26T06:03:18;13.87;;;9.53;;
5612;SDS011;63463;53.586;9.928;2023-06-26T06:05:44;13.33;;;10.13;;
5612;SDS011;63463;53.586;9.928;2023-06-26T06:08:10;12.90;;;9.90;;
5612;SDS011;63463;53.586;9.928;2023-06-26T06:10:36;10.07;;;9.03;;
5612;SDS011;63463;53.586;9.928;2023-06-26T06:13:05;11.23;;;9.13;;
5612;SDS011;63463;53.586;9.928;2023-06-26T06:15:31;12.90;;;9.87;;
5612;SDS011;63463;53.586;9.928;2023-06-26T06:17:57;10.47;;;9.40;;
5612;SDS011;63463;53.586;9.928;2023-06-26T06:20:24;17.23;;;9.30;;
5612;SDS011;63463;53.586;9.928;2023-06-26T06:22:50;16.40;;;9.47;;
5612;SDS011;63463;53.586;9.928;2023-06-26T06:25:16;12.03;;;9.47;;
5612;SDS011;63463;53.586;9.928;2023-06-26T06:27:41;15.93;;;9.70;;
5612;SDS011;63463;53.586;9.928;2023-06-26T06:30:08;14.77;;;9.90;;
5612;SDS011;63463;53.586;9.928;2023-06-26T06:32:43;9.63;;;8.63;;
5612;SDS011;63463;53.586;9.928;2023-06-26T06:35:25;17.73;;;8.87;;
5612;SDS011;63463;53.586;9.928;2023-06-26T06:37:52;11.97;;;8.97;;
5612;SDS011;63463;53.586;9.928;2023-06-26T06:40:18;13.47;;;9.40;;
5612;SDS011;63463;53.586;9.928;2023-06-26T06:42:47;13.53;;;9.80;;
5612;SDS011;63463;53.586;9.928;2023-06-26T06:45:12;15.63;;;8.80;;
5612;SDS011;63463;53.586;9.928;2023-06-26T06:47:38;13.53;;;9.00;;
5612;SDS011;63463;53.586;9.928;2023-06-26T06:50:04;9.37;;;7.73;;
5612;SDS011;63463;53.586;9.928;2023-06-26T06:52:35;9.83;;;8.50;;
5612;SDS011;63463;53.586;9.928;2023-06-26T06:55:01;11.50;;;8.73;;
5612;SDS011;63463;53.586;9.928;2023-06-26T06:57:32;9.73;;;8.73;;
5612;SDS011;63463;53.586;9.928;2023-06-26T07:00:06;9.63;;;8.67;;
5612;SDS011;63463;53.586;9.928;2023-06-26T07:02:39;10.83;;;7.67;;
5612;SDS011;63463;53.586;9.928;2023-06-26T07:05:06;11.57;;;8.07;;
5612;SDS011;63463;53.586;9.928;2023-06-26T07:07:32;13.47;;;9.10;;
5612;SDS011;63463;53.586;9.928;2023-06-26T07:10:06;16.40;;;8.30;;
5612;SDS011;63463;53.586;9.928;2023-06-26T07:12:32;18.37;;;8.20;;
5612;SDS011;63463;53.586;9.928;2023-06-26T07:15:01;11.97;;;8.53;;
5612;SDS011;63463;53.586;9.928;2023-06-26T07:17:30;12.27;;;8.13;;
5612;SDS011;63463;53.586;9.928;2023-06-26T07:19:55;19.77;;;9.40;;
5612;SDS011;63463;53.586;9.928;2023-06-26T07:22:22;9.65;;;8.30;;
5612;SDS011;63463;53.586;9.928;2023-06-26T07:24:48;11.25;;;8.00;;
5612;SDS011;63463;53.586;9.928;2023-06-26T07:27:14;13.90;;;8.50;;
5612;SDS011;63463;53.586;9.928;2023-06-26T07:29:41;10.68;;;8.23;;
5612;SDS011;63463;53.586;9.928;2023-06-26T07:32:07;10.27;;;8.10;;
5612;SDS011;63463;53.586;9.928;2023-06-26T07:34:33;17.13;;;8.00;;
5612;SDS011;63463;53.586;9.928;2023-06-26T07:36:59;10.20;;;8.60;;
5612;SDS011;63463;53.586;9.928;2023-06-26T07:39:25;15.52;;;8.40;;
5612;SDS011;63463;53.586;9.928;2023-06-26T07:41:51;10.50;;;7.60;;
5612;SDS011;63463;53.586;9.928;2023-06-26T07:44:17;13.98;;;8.18;;
5612;SDS011;63463;53.586;9.928;2023-06-26T07:46:43;12.13;;;8.43;;
5612;SDS011;63463;53.586;9.928;2023-06-26T07:49:10;11.18;;;7.93;;
5612;SDS011;63463;53.586;9.928;2023-06-26T07:51:36;11.43;;;7.70;;
5612;SDS011;63463;53.586;9.928;2023-06-26T07:54:02;13.30;;;7.65;;
5612;SDS011;63463;53.586;9.928;2023-06-26T07:56:28;12.10;;;6.93;;
5612;SDS011;63463;53.586;9.928;2023-06-26T07:58:54;11.00;;;8.10;;
5612;SDS011;63463;53.586;9.928;2023-06-26T08:01:25;9.45;;;7.97;;
5612;SDS011;63463;53.586;9.928;2023-06-26T08:03:51;8.98;;;8.07;;
5612;SDS011;63463;53.586;9.928;2023-06-26T08:06:17;15.85;;;7.07;;
5612;SDS011;63463;53.586;9.928;2023-06-26T08:08:43;10.35;;;7.32;;
5612;SDS011;63463;53.586;9.928;2023-06-26T08:11:09;9.15;;;6.82;;
5612;SDS011;63463;53.586;9.928;2023-06-26T08:13:35;9.02;;;7.07;;
5612;SDS011;63463;53.586;9.928;2023-06-26T08:16:01;9.27;;;7.20;;
5612;SDS011;63463;53.586;9.928;2023-06-26T08:18:27;9.07;;;7.13;;
5612;SDS011;63463;53.586;9.928;2023-06-26T08:20:54;13.23;;;8.07;;
5612;SDS011;63463;53.586;9.928;2023-06-26T08:23:20;12.75;;;7.47;;
5612;SDS011;63463;53.586;9.928;2023-06-26T08:25:47;14.57;;;7.07;;
5612;SDS011;63463;53.586;9.928;2023-06-26T08:28:13;10.80;;;7.68;;
5612;SDS011;63463;53.586;9.928;2023-06-26T08:30:39;7.57;;;6.60;;
5612;SDS011;63463;53.586;9.928;2023-06-26T08:33:05;7.40;;;6.70;;
5612;SDS011;63463;53.586;9.928;2023-06-26T08:35:35;7.95;;;7.15;;
5612;SDS011;63463;53.586;9.928;2023-06-26T08:38:01;8.20;;;7.28;;
5612;SDS011;63463;53.586;9.928;2023-06-26T08:43:31;7.90;;;7.03;;
5612;SDS011;63463;53.586;9.928;2023-06-26T08:45:57;7.47;;;6.65;;
5612;SDS011;63463;53.586;9.928;2023-06-26T08:48:23;8.65;;;7.75;;
5612;SDS011;63463;53.586;9.928;2023-06-26T08:50:49;8.73;;;7.63;;
5612;SDS011;63463;53.586;9.928;2023-06-26T08:53:27;8.20;;;7.38;;
5612;SDS011;63463;53.586;9.928;2023-06-26T08:55:57;18.27;;;7.93;;
5612;SDS011;63463;53.586;9.928;2023-06-26T08:58:23;12.10;;;8.02;;
5612;SDS011;63463;53.586;9.928;2023-06-26T09:00:49;10.27;;;7.97;;
5612;SDS011;63463;53.586;9.928;2023-06-26T09:03:16;9.40;;;8.40;;
5612;SDS011;63463;53.586;9.928;2023-06-26T09:05:42;12.27;;;9.43;;
5612;SDS011;63463;53.586;9.928;2023-06-26T09:08:08;14.85;;;9.43;;
5612;SDS011;63463;53.586;9.928;2023-06-26T09:10:34;10.80;;;9.50;;
5612;SDS011;63463;53.586;9.928;2023-06-26T09:13:00;12.50;;;10.13;;
5612;SDS011;63463;53.586;9.928;2023-06-26T09:15:36;13.70;;;8.70;;
5612;SDS011;63463;53.586;9.928;2023-06-26T09:18:04;13.00;;;10.45;;
5612;SDS011;63463;53.586;9.928;2023-06-26T09:20:30;11.77;;;9.73;;
5612;SDS011;63463;53.586;9.928;2023-06-26T09:23:00;17.17;;;10.18;;
5612;SDS011;63463;53.586;9.928;2023-06-26T09:25:27;15.32;;;10.13;;
5612;SDS011;63463;53.586;9.928;2023-06-26T09:27:53;21.00;;;11.10;;
5612;SDS011;63463;53.586;9.928;2023-06-26T09:30:19;17.90;;;10.15;;
5612;SDS011;63463;53.586;9.928;2023-06-26T09:32:46;14.07;;;10.00;;
5612;SDS011;63463;53.586;9.928;2023-06-26T09:35:12;15.82;;;10.52;;
5612;SDS011;63463;53.586;9.928;2023-06-26T09:37:38;17.58;;;10.77;;
5612;SDS011;63463;53.586;9.928;2023-06-26T09:40:04;25.45;;;10.18;;
5612;SDS011;63463;53.586;9.928;2023-06-26T09:42:30;16.27;;;8.63;;
5612;SDS011;63463;53.586;9.928;2023-06-26T09:44:56;18.35;;;10.57;;
5612;SDS011;63463;53.586;9.928;2023-06-26T09:47:23;20.40;;;10.55;;
5612;SDS011;63463;53.586;9.928;2023-06-26T09:49:49;18.65;;;12.57;;
5612;SDS011;63463;53.586;9.928;2023-06-26T09:52:17;26.27;;;14.07;;
5612;SDS011;63463;53.586;9.928;2023-06-26T09:54:44;23.25;;;12.27;;
5612;SDS011;63463;53.586;9.928;2023-06-26T09:57:11;18.70;;;13.63;;
5612;SDS011;63463;53.586;9.928;2023-06-26T09:59:38;18.80;;;11.80;;
5612;SDS011;63463;53.586;9.928;2023-06-26T10:02:04;20.40;;;11.68;;
5612;SDS011;63463;53.586;9.928;2023-06-26T10:04:30;18.75;;;12.60;;
5612;SDS011;63463;53.586;9.928;2023-06-26T10:06:58;31.23;;;13.70;;
5612;SDS011;63463;53.586;9.928;2023-06-26T10:09:26;23.27;;;13.10;;
5612;SDS011;63463;53.586;9.928;2023-06-26T10:14:20;18.20;;;13.47;;
5612;SDS011;63463;53.586;9.928;2023-06-26T10:16:47;22.40;;;13.60;;
5612;SDS011;63463;53.586;9.928;2023-06-26T10:19:16;25.70;;;12.73;;
5612;SDS011;63463;53.586;9.928;2023-06-26T10:21:48;11.93;;;8.50;;
5612;SDS011;63463;53.586;9.928;2023-06-26T10:24:15;12.20;;;8.20;;
5612;SDS011;63463;53.586;9.928;2023-06-26T10:29:22;11.07;;;8.80;;
5612;SDS011;63463;53.586;9.928;2023-06-26T10:31:50;12.80;;;9.73;;
5612;SDS011;63463;53.586;9.928;2023-06-26T10:34:17;15.50;;;10.30;;
5612;SDS011;63463;53.586;9.928;2023-06-26T10:36:43;16.70;;;9.23;;
5612;SDS011;63463;53.586;9.928;2023-06-26T10:39:09;18.43;;;10.30;;
5612;SDS011;63463;53.586;9.928;2023-06-26T10:41:41;17.67;;;11.00;;
5612;SDS011;63463;53.586;9.928;2023-06-26T10:44:17;17.00;;;10.30;;
5612;SDS011;63463;53.586;9.928;2023-06-26T10:46:50;14.33;;;9.77;;
5612;SDS011;63463;53.586;9.928;2023-06-26T10:49:18;17.70;;;11.10;;
5612;SDS011;63463;53.586;9.928;2023-06-26T10:51:48;15.90;;;11.67;;
5612;SDS011;63463;53.586;9.928;2023-06-26T10:54:15;19.57;;;12.80;;
5612;SDS011;63463;53.586;9.928;2023-06-26T10:56:44;24.10;;;12.97;;
5612;SDS011;63463;53.586;9.928;2023-06-26T10:59:18;29.07;;;15.17;;
5612;SDS011;63463;53.586;9.928;2023-06-26T11:01:45;20.13;;;14.93;;
5612;SDS011;63463;53.586;9.928;2023-06-26T11:04:13;22.20;;;17.17;;
5612;SDS011;63463;53.586;9.928;2023-06-26T11:06:41;27.70;;;18.30;;
5612;SDS011;63463;53.586;9.928;2023-06-26T11:09:09;31.53;;;17.53;;
5612;SDS011;63463;53.586;9.928;2023-06-26T11:14:18;22.47;;;12.10;;
5612;SDS011;63463;53.586;9.928;2023-06-26T11:16:44;18.90;;;10.90;;
5612;SDS011;63463;53.586;9.928;2023-06-26T11:19:10;18.67;;;10.23;;
5612;SDS011;63463;53.586;9.928;2023-06-26T11:21:37;16.90;;;10.30;;
5612;SDS011;63463;53.586;9.928;2023-06-26T11:24:06;22.23;;;7.73;;
5612;SDS011;63463;53.586;9.928;2023-06-26T11:26:39;20.53;;;8.00;;
5612;SDS011;63463;53.586;9.928;2023-06-26T11:29:05;17.80;;;7.57;;
5612;SDS011;63463;53.586;9.928;2023-06-26T11:31:32;18.33;;;8.00;;
5612;SDS011;63463;53.586;9.928;2023-06-26T11:34:02;14.70;;;7.10;;
5612;SDS011;63463;53.586;9.928;2023-06-26T11:36:28;24.17;;;6.50;;
5612;SDS011;63463;53.586;9.928;2023-06-26T11:38:59;22.87;;;6.80;;
5612;SDS011;63463;53.586;9.928;2023-06-26T11:41:29;10.73;;;5.93;;
5612;SDS011;63463;53.586;9.928;2023-06-26T11:43:55;14.63;;;5.87;;
5612;SDS011;63463;53.586;9.928;2023-06-26T11:46:22;11.57;;;4.97;;
5612;SDS011;63463;53.586;9.928;2023-06-26T11:48:48;11.30;;;5.30;;
5612;SDS011;63463;53.586;9.928;2023-06-26T11:51:15;9.57;;;4.33;;
5612;SDS011;63463;53.586;9.928;2023-06-26T11:53:41;9.23;;;4.07;;
5612;SDS011;63463;53.586;9.928;2023-06-26T11:56:17;13.93;;;3.80;;
5612;SDS011;63463;53.586;9.928;2023-06-26T12:01:32;12.60;;;3.50;;
5612;SDS011;63463;53.586;9.928;2023-06-26T12:03:59;10.87;;;3.70;;
5612;SDS011;63463;53.586;9.928;2023-06-26T12:06:26;7.10;;;3.90;;
5612;SDS011;63463;53.586;9.928;2023-06-26T12:08:52;10.90;;;3.60;;
5612;SDS011;63463;53.586;9.928;2023-06-26T12:11:19;8.43;;;3.30;;
5612;SDS011;63463;53.586;9.928;2023-06-26T12:13:46;10.87;;;3.40;;
5612;SDS011;63463;53.586;9.928;2023-06-26T12:16:13;6.00;;;3.10;;
5612;SDS011;63463;53.586;9.928;2023-06-26T12:21:28;12.97;;;3.17;;
5612;SDS011;63463;53.586;9.928;2023-06-26T12:23:58;12.70;;;3.13;;
5612;SDS011;63463;53.586;9.928;2023-06-26T12:26:25;9.20;;;3.00;;
5612;SDS011;63463;53.586;9.928;2023-06-26T12:28:51;9.80;;;3.13;;
5612;SDS011;63463;53.586;9.928;2023-06-26T12:34:25;13.93;;;3.08;;
5612;SDS011;63463;53.586;9.928;2023-06-26T12:36:59;8.77;;;2.72;;
5612;SDS011;63463;53.586;9.928;2023-06-26T12:39:25;3.05;;;1.92;;
5612;SDS011;63463;53.586;9.928;2023-06-26T12:42:00;12.07;;;2.70;;
5612;SDS011;63463;53.586;9.928;2023-06-26T12:44:30;6.03;;;2.10;;
5612;SDS011;63463;53.586;9.928;2023-06-26T12:47:01;8.98;;;2.65;;
5612;SDS011;63463;53.586;9.928;2023-06-26T12:49:40;10.00;;;2.47;;
5612;SDS011;63463;53.586;9.928;2023-06-26T12:52:10;6.15;;;2.90;;
5612;SDS011;63463;53.586;9.928;2023-06-26T12:54:38;4.40;;;2.50;;
5612;SDS011;63463;53.586;9.928;2023-06-26T12:57:04;14.82;;;2.65;;
5612;SDS011;63463;53.586;9.928;2023-06-26T12:59:31;7.72;;;2.33;;
5612;SDS011;63463;53.586;9.928;2023-06-26T13:01:57;6.97;;;2.60;;
5612;SDS011;63463;53.586;9.928;2023-06-26T13:04:23;5.68;;;2.40;;
5612;SDS011;63463;53.586;9.928;2023-06-26T13:06:50;10.20;;;2.40;;
5612;SDS011;63463;53.586;9.928;2023-06-26T13:09:16;5.37;;;1.80;;
5612;SDS011;63463;53.586;9.928;2023-06-26T13:11:45;10.10;;;2.40;;
5612;SDS011;63463;53.586;9.928;2023-06-26T13:14:13;4.32;;;2.15;;
5612;SDS011;63463;53.586;9.928;2023-06-26T13:16:39;6.38;;;2.00;;
5612;SDS011;63463;53.586;9.928;2023-06-26T13:19:07;6.97;;;2.67;;
5612;SDS011;63463;53.586;9.928;2023-06-26T13:21:34;4.68;;;2.08;;
5612;SDS011;63463;53.586;9.928;2023-06-26T13:24:00;5.97;;;2.55;;
5612;SDS011;63463;53.586;9.928;2023-06-26T13:26:28;4.13;;;2.00;;
5612;SDS011;63463;53.586;9.928;2023-06-26T13:28:55;7.95;;;1.98;;
5612;SDS011;63463;53.586;9.928;2023-06-26T13:31:21;4.20;;;2.00;;
5612;SDS011;63463;53.586;9.928;2023-06-26T13:33:47;6.45;;;2.00;;
5612;SDS011;63463;53.586;9.928;2023-06-26T13:36:15;9.95;;;2.80;;
5612;SDS011;63463;53.586;9.928;2023-06-26T13:38:51;7.40;;;2.38;;
5612;SDS011;63463;53.586;9.928;2023-06-26T13:41:22;3.58;;;2.30;;
5612;SDS011;63463;53.586;9.928;2023-06-26T13:43:49;3.60;;;2.47;;
5612;SDS011;63463;53.586;9.928;2023-06-26T13:46:15;7.93;;;2.95;;
5612;SDS011;63463;53.586;9.928;2023-06-26T13:48:42;6.18;;;1.92;;
5612;SDS011;63463;53.586;9.928;2023-06-26T13:51:11;9.50;;;1.77;;
5612;SDS011;63463;53.586;9.928;2023-06-26T13:53:37;3.13;;;1.77;;
5612;SDS011;63463;53.586;9.928;2023-06-26T13:56:04;5.07;;;1.70;;
5612;SDS011;63463;53.586;9.928;2023-06-26T13:58:30;9.07;;;2.05;;
5612;SDS011;63463;53.586;9.928;2023-06-26T14:00:57;3.70;;;2.00;;
5612;SDS011;63463;53.586;9.928;2023-06-26T14:03:24;2.07;;;1.53;;
5612;SDS011;63463;53.586;9.928;2023-06-26T14:05:50;9.50;;;1.92;;
5612;SDS011;63463;53.586;9.928;2023-06-26T14:08:17;4.22;;;2.17;;
5612;SDS011;63463;53.586;9.928;2023-06-26T14:10:43;7.43;;;1.63;;
5612;SDS011;63463;53.586;9.928;2023-06-26T14:13:09;4.18;;;1.70;;
5612;SDS011;63463;53.586;9.928;2023-06-26T14:15:39;3.03;;;1.95;;
5612;SDS011;63463;53.586;9.928;2023-06-26T14:18:06;8.10;;;1.90;;
5612;SDS011;63463;53.586;9.928;2023-06-26T14:20:34;8.90;;;2.47;;
5612;SDS011;63463;53.586;9.928;2023-06-26T14:23:01;4.03;;;2.13;;
5612;SDS011;63463;53.586;9.928;2023-06-26T14:25:27;4.70;;;1.90;;
5612;SDS011;63463;53.586;9.928;2023-06-26T14:27:54;11.50;;;1.87;;
5612;SDS011;63463;53.586;9.928;2023-06-26T14:30:20;6.90;;;2.43;;
5612;SDS011;63463;53.586;9.928;2023-06-26T14:32:46;3.33;;;1.63;;
5612;SDS011;63463;53.586;9.928;2023-06-26T14:35:12;2.45;;;1.80;;
5612;SDS011;63463;53.586;9.928;2023-06-26T14:37:38;5.10;;;1.67;;
5612;SDS011;63463;53.586;9.928;2023-06-26T14:40:06;3.72;;;1.65;;
5612;SDS011;63463;53.586;9.928;2023-06-26T14:42:32;2.65;;;1.40;;
5612;SDS011;63463;53.586;9.928;2023-06-26T14:44:58;2.28;;;1.50;;
5612;SDS011;63463;53.586;9.928;2023-06-26T14:47:24;6.10;;;1.52;;
5612;SDS011;63463;53.586;9.928;2023-06-26T14:49:50;5.72;;;1.80;;
5612;SDS011;63463;53.586;9.928;2023-06-26T14:52:18;2.67;;;1.40;;
5612;SDS011;63463;53.586;9.928;2023-06-26T14:54:45;2.30;;;1.75;;
5612;SDS011;63463;53.586;9.928;2023-06-26T14:57:12;1.57;;;1.47;;
5612;SDS011;63463;53.586;9.928;2023-06-26T14:59:38;3.20;;;1.40;;
5612;SDS011;63463;53.586;9.928;2023-06-26T15:02:09;8.00;;;1.60;;
5612;SDS011;63463;53.586;9.928;2023-06-26T15:04:44;5.50;;;2.10;;
5612;SDS011;63463;53.586;9.928;2023-06-26T15:07:13;2.73;;;1.83;;
5612;SDS011;63463;53.586;9.928;2023-06-26T15:09:39;2.00;;;1.80;;